Time;durP1;ratioP1;P1;durP2;ratioP2;P2;SDS_P1;SDS_P2;PMS_P1;PMS_P2;Temp;Humidity;BMP_temperature;BMP_pressure;BME280_temperature;BME280_humidity;BME280_pressure;Samples;Min_cycle;Max_cycle;Signal;HPM_P1;HPM_P2
2023/10/27 00:03:39;;;;;;;;;;;;;;;8.85;100.00;93568.75;10522178;27;2638;-72
2023/10/27 00:08:45;;;;;;;;;;;;;;;8.81;100.00;93562.44;10493109;28;2692;-71
2023/10/27 00:13:48;;;;;;;;;;;;;;;8.81;100.00;93565.13;10526620;28;2678;-76
2023/10/27 00:18:52;;;;;;;;;;;;;;;8.78;100.00;93566.56;10525952;27;2620;-70
2023/10/27 00:23:55;;;;;;;;;;;;;;;8.75;100.00;93559.13;10510338;28;2673;-70
2023/10/27 00:29:00;;;;;;;;;;;;;;;8.76;100.00;93559.91;10504361;28;2652;-70
2023/10/27 00:34:03;;;;;;;;;;;;;;;8.76;100.00;93541.94;10496988;28;2750;-71
2023/10/27 00:39:06;;;;;;;;;;;;;;;8.76;100.00;93546.53;10493595;28;2807;-70
2023/10/27 00:44:09;;;;;;;;;;;;;;;8.85;100.00;93547.31;10486713;28;2833;-70
2023/10/27 00:49:12;;;;;;;;;;;;;;;8.93;100.00;93541.16;10487729;28;5291;-72
2023/10/27 00:54:15;;;;;;;;;;;;;;;8.97;100.00;93543.97;10484899;28;2828;-72
2023/10/27 00:59:18;;;;;;;;;;;;;;;8.81;100.00;93549.81;10501247;28;2616;-70
2023/10/27 01:04:22;;;;;;;;;;;;;;;8.79;100.00;93556.63;10495392;28;2845;-70
2023/10/27 01:09:25;;;;;;;;;;;;;;;8.55;100.00;93567.78;10496445;28;3084;-71
2023/10/27 01:14:28;;;;;;;;;;;;;;;8.69;100.00;93560.38;10528563;27;2517;-70
2023/10/27 01:19:32;;;;;;;;;;;;;;;8.75;100.00;93569.06;10515543;28;2625;-70
2023/10/27 01:24:36;;;;;;;;;;;;;;;8.61;100.00;93563.84;10507887;28;2542;-70
2023/10/27 01:29:41;;;;;;;;;;;;;;;8.58;100.00;93575.97;10488227;28;2651;-69
2023/10/27 01:34:44;;;;;;;;;;;;;;;8.48;100.00;93560.22;10506044;28;2626;-70
2023/10/27 01:39:48;;;;;;;;;;;;;;;8.54;100.00;93558.97;10492069;28;2582;-69
2023/10/27 01:44:51;;;;;;;;;;;;;;;8.62;100.00;93565.44;10492441;28;2800;-70
2023/10/27 01:49:54;;;;;;;;;;;;;;;8.54;100.00;93571.56;10508159;28;5124;-70
2023/10/27 01:55:00;;;;;;;;;;;;;;;8.60;100.00;93573.78;10510208;28;2596;-70
2023/10/27 02:00:07;;;;;;;;;;;;;;;8.60;100.00;93592.53;10505930;28;2591;-70
2023/10/27 02:05:12;;;;;;;;;;;;;;;8.43;100.00;93589.81;10511006;28;2578;-71
2023/10/27 02:10:15;;;;;;;;;;;;;;;8.28;100.00;93606.31;10493769;28;2665;-69
2023/10/27 02:15:19;;;;;;;;;;;;;;;8.10;100.00;93608.94;10511282;28;2552;-71
2023/10/27 02:20:29;;;;;;;;;;;;;;;8.09;100.00;93601.22;10523636;28;2656;-70
2023/10/27 02:25:33;;;;;;;;;;;;;;;8.09;100.00;93601.22;10516744;28;2620;-70
2023/10/27 02:30:36;;;;;;;;;;;;;;;8.20;100.00;93601.72;10498264;28;2628;-70
2023/10/27 02:35:39;;;;;;;;;;;;;;;8.14;100.00;93593.03;10479458;28;2691;-69
2023/10/27 02:40:42;;;;;;;;;;;;;;;8.08;100.00;93597.75;10530692;28;2648;-72
2023/10/27 02:45:46;;;;;;;;;;;;;;;8.19;100.00;93589.44;10522130;27;2692;-70
2023/10/27 02:50:48;;;;;;;;;;;;;;;8.20;100.00;93589.09;10494771;28;5442;-71
2023/10/27 02:55:56;;;;;;;;;;;;;;;8.12;100.00;93596.03;10527592;28;2652;-71
2023/10/27 03:01:00;;;;;;;;;;;;;;;8.07;100.00;93593.47;10492327;28;3050;-71
2023/10/27 03:06:04;;;;;;;;;;;;;;;8.04;100.00;93583.41;10491063;28;2883;-72
2023/10/27 03:11:08;;;;;;;;;;;;;;;8.12;100.00;93596.03;10482814;28;3007;-71
2023/10/27 03:16:16;;;;;;;;;;;;;;;8.10;100.00;93610.81;10495411;28;2763;-70
2023/10/27 03:21:20;;;;;;;;;;;;;;;8.14;100.00;93609.09;10511372;28;2634;-71
2023/10/27 03:26:23;;;;;;;;;;;;;;;8.09;100.00;93618.06;10495973;28;2574;-72
2023/10/27 03:31:29;;;;;;;;;;;;;;;8.10;100.00;93625.00;10498308;28;2575;-71
2023/10/27 03:36:34;;;;;;;;;;;;;;;8.01;100.00;93632.19;10509574;28;2749;-70
2023/10/27 03:41:40;;;;;;;;;;;;;;;8.08;100.00;93626.41;10508410;28;2878;-71
2023/10/27 03:46:45;;;;;;;;;;;;;;;8.08;100.00;93618.38;10490952;28;2918;-71
2023/10/27 03:51:49;;;;;;;;;;;;;;;8.09;100.00;93620.75;10528212;27;5137;-70
2023/10/27 03:56:52;;;;;;;;;;;;;;;8.09;100.00;93620.75;10510056;28;2667;-69
2023/10/27 04:01:55;;;;;;;;;;;;;;;8.07;100.00;93614.88;10514391;28;2533;-69
2023/10/27 04:06:59;;;;;;;;;;;;;;;8.11;100.00;93605.16;10532104;28;2488;-70
2023/10/27 04:12:06;;;;;;;;;;;;;;;8.16;100.00;93616.81;10517977;28;2589;-71
2023/10/27 04:17:10;;;;;;;;;;;;;;;8.21;100.00;93601.41;10511046;28;2717;-69
2023/10/27 04:22:14;;;;;;;;;;;;;;;8.31;100.00;93608.34;10508050;28;2503;-69
2023/10/27 04:27:18;;;;;;;;;;;;;;;8.39;100.00;93610.28;10495614;28;2643;-72
2023/10/27 04:32:20;;;;;;;;;;;;;;;8.41;100.00;93618.81;10524970;28;3002;-70
2023/10/27 04:37:23;;;;;;;;;;;;;;;8.43;100.00;93621.94;10507207;28;2844;-71
2023/10/27 04:42:27;;;;;;;;;;;;;;;8.46;100.00;93609.81;10478524;28;2560;-71
2023/10/27 04:47:31;;;;;;;;;;;;;;;8.45;100.00;93606.34;10525914;28;2677;-70
2023/10/27 04:52:35;;;;;;;;;;;;;;;8.53;100.00;93608.28;10494162;28;5525;-71
2023/10/27 04:57:42;;;;;;;;;;;;;;;8.54;100.00;93609.84;10516450;28;2663;-75
2023/10/27 05:02:45;;;;;;;;;;;;;;;8.51;100.00;93599.75;10489707;28;3128;-73
2023/10/27 05:07:50;;;;;;;;;;;;;;;8.54;100.00;93598.34;10512223;28;2638;-75
2023/10/27 05:12:58;;;;;;;;;;;;;;;8.57;100.00;93590.47;10470206;28;2550;-72
2023/10/27 05:18:12;;;;;;;;;;;;;;;8.47;100.00;93590.00;10490831;28;2672;-74
2023/10/27 05:23:18;;;;;;;;;;;;;;;8.52;100.00;93585.25;10506501;28;2668;-70
2023/10/27 05:28:22;;;;;;;;;;;;;;;8.47;100.00;93579.28;10520552;28;2808;-70
2023/10/27 05:33:28;;;;;;;;;;;;;;;8.50;100.00;93584.78;10491382;28;2841;-71
2023/10/27 05:38:31;;;;;;;;;;;;;;;8.54;100.00;93591.09;10484261;28;3122;-70
2023/10/27 05:43:34;;;;;;;;;;;;;;;8.56;100.00;93604.97;10494924;28;2862;-75
2023/10/27 05:48:38;;;;;;;;;;;;;;;8.63;100.00;93620.56;10502770;28;5248;-74
2023/10/27 05:53:41;;;;;;;;;;;;;;;8.61;100.00;93623.56;10464717;28;2832;-77
2023/10/27 05:58:46;;;;;;;;;;;;;;;8.63;100.00;93636.63;10506075;28;2948;-73
2023/10/27 06:03:53;;;;;;;;;;;;;;;8.71;100.00;93643.88;10508369;28;2553;-71
2023/10/27 06:08:56;;;;;;;;;;;;;;;8.69;100.00;93659.50;10517856;28;2598;-72
2023/10/27 06:13:59;;;;;;;;;;;;;;;8.75;100.00;93671.63;10501464;28;2700;-70
2023/10/27 06:19:03;;;;;;;;;;;;;;;8.69;100.00;93672.09;10496178;28;2546;-71
2023/10/27 06:24:07;;;;;;;;;;;;;;;8.73;100.00;93673.06;10516454;28;2561;-68
2023/10/27 06:29:10;;;;;;;;;;;;;;;8.76;100.00;93670.53;10510224;28;3165;-71
2023/10/27 06:34:16;;;;;;;;;;;;;;;8.96;100.00;93666.44;10524230;28;2581;-69
2023/10/27 06:39:21;;;;;;;;;;;;;;;8.97;100.00;93668.03;10483427;28;2686;-70
2023/10/27 06:44:25;;;;;;;;;;;;;;;9.00;100.00;93663.94;10524303;28;2905;-70
2023/10/27 06:49:28;;;;;;;;;;;;;;;9.09;100.00;93665.50;10533278;28;5195;-70
2023/10/27 06:54:32;;;;;;;;;;;;;;;9.20;100.00;93677.50;10526676;28;1900;-70
2023/10/27 06:59:36;;;;;;;;;;;;;;;9.23;100.00;93680.66;10506455;28;2004;-71
2023/10/27 07:04:39;;;;;;;;;;;;;;;9.28;100.00;93661.72;10524834;28;1976;-71
2023/10/27 07:09:45;;;;;;;;;;;;;;;9.36;100.00;93677.03;10543813;27;1079;-72
2023/10/27 07:14:51;;;;;;;;;;;;;;;9.32;100.00;93662.69;10504394;28;1521;-71
2023/10/27 07:19:57;;;;;;;;;;;;;;;9.40;100.00;93675.28;10526195;28;1910;-70
2023/10/27 07:25:00;;;;;;;;;;;;;;;9.54;100.00;93677.78;10504799;28;1407;-72
2023/10/27 07:30:04;;;;;;;;;;;;;;;9.71;100.00;93685.81;10541541;28;2980;-73
2023/10/27 07:35:09;;;;;;;;;;;;;;;9.82;100.00;93686.28;10504824;28;1549;-72
2023/10/27 07:40:20;;;;;;;;;;;;;;;9.92;100.00;93691.28;10503927;28;1902;-72
2023/10/27 07:45:26;;;;;;;;;;;;;;;9.97;100.00;93688.44;10537334;28;1841;-71
2023/10/27 07:50:33;;;;;;;;;;;;;;;10.21;100.00;93694.06;10522753;28;5119;-71
2023/10/27 07:55:36;;;;;;;;;;;;;;;10.39;100.00;93694.03;10520349;28;1790;-71
2023/10/27 08:00:42;;;;;;;;;;;;;;;10.53;100.00;93690.00;10509131;28;1902;-71
2023/10/27 08:05:45;;;;;;;;;;;;;;;10.70;100.00;93697.19;10523170;28;1737;-71
2023/10/27 08:10:49;;;;;;;;;;;;;;;10.80;100.00;93688.72;10519979;28;1525;-72
2023/10/27 08:15:54;;;;;;;;;;;;;;;11.14;100.00;93700.41;10488223;28;1939;-72
2023/10/27 08:20:57;;;;;;;;;;;;;;;11.25;100.00;93703.47;10521616;28;1979;-73
2023/10/27 08:26:02;;;;;;;;;;;;;;;11.49;100.00;93708.97;10511062;28;1525;-71
2023/10/27 08:31:07;;;;;;;;;;;;;;;11.42;100.00;93713.31;10499721;28;2818;-71
2023/10/27 08:36:15;;;;;;;;;;;;;;;11.43;100.00;93721.06;10513411;28;1614;-71
2023/10/27 08:41:19;;;;;;;;;;;;;;;11.45;100.00;93729.59;10512282;28;1914;-72
2023/10/27 08:46:24;;;;;;;;;;;;;;;11.36;100.00;93753.06;10520062;28;1580;-71
2023/10/27 08:51:29;;;;;;;;;;;;;;;11.21;100.00;93751.75;10522850;28;5200;-71
2023/10/27 08:56:32;;;;;;;;;;;;;;;11.16;100.00;93764.59;10520145;28;1805;-72
2023/10/27 09:01:36;;;;;;;;;;;;;;;11.23;100.00;93771.03;10521122;28;1905;-71
2023/10/27 09:06:40;;;;;;;;;;;;;;;11.35;100.00;93768.44;10519934;28;1496;-71
2023/10/27 09:11:47;;;;;;;;;;;;;;;11.49;100.00;93778.16;10521773;28;2738;-71
2023/10/27 09:16:52;;;;;;;;;;;;;;;11.52;100.00;93780.97;10518119;28;1554;-71
2023/10/27 09:21:55;;;;;;;;;;;;;;;11.64;100.00;93782.94;10523463;28;1906;-71
2023/10/27 09:27:03;;;;;;;;;;;;;;;11.56;100.00;93799.94;10502979;28;1488;-75
2023/10/27 09:32:07;;;;;;;;;;;;;;;11.68;100.00;93802.69;10526049;28;1612;-70
2023/10/27 09:37:12;;;;;;;;;;;;;;;11.77;100.00;93792.69;10539399;27;1530;-71
2023/10/27 09:42:17;;;;;;;;;;;;;;;11.58;100.00;93795.03;10498701;28;1985;-72
2023/10/27 09:47:23;;;;;;;;;;;;;;;11.31;100.00;93805.16;10486150;28;1448;-71
2023/10/27 09:52:27;;;;;;;;;;;;;;;11.19;100.00;93813.13;10506135;28;5161;-71
2023/10/27 09:57:32;;;;;;;;;;;;;;;11.26;100.00;93797.28;10532745;28;2788;-71
2023/10/27 10:02:36;;;;;;;;;;;;;;;11.72;100.00;93805.53;10499460;28;1926;-69
2023/10/27 10:07:41;;;;;;;;;;;;;;;12.21;100.00;93798.47;10497158;28;1881;-70
2023/10/27 10:12:49;;;;;;;;;;;;;;;12.19;100.00;93789.94;10496944;28;2549;-71
2023/10/27 10:18:14;;;;;;;;;;;;;;;12.33;100.00;93795.81;10513846;28;2530;-74
2023/10/27 10:23:31;;;;;;;;;;;;;;;12.88;100.00;93810.78;10487603;28;2741;-71
2023/10/27 10:28:39;;;;;;;;;;;;;;;12.92;100.00;93794.72;10505131;28;2944;-71
2023/10/27 10:33:44;;;;;;;;;;;;;;;12.79;100.00;93793.09;10507385;28;2648;-73
2023/10/27 10:38:47;;;;;;;;;;;;;;;12.91;100.00;93803.91;10499262;28;2884;-73
2023/10/27 10:43:53;;;;;;;;;;;;;;;13.09;100.00;93799.09;10488106;28;2937;-78
2023/10/27 10:49:01;;;;;;;;;;;;;;;13.01;100.00;93808.09;10518338;28;2850;-75
2023/10/27 10:54:04;;;;;;;;;;;;;;;13.22;100.00;93806.09;10488379;28;2576;-72
2023/10/27 10:59:09;;;;;;;;;;;;;;;12.85;100.00;93811.47;10474053;28;2626;-70
2023/10/27 11:04:17;;;;;;;;;;;;;;;12.76;100.00;93813.44;10480404;28;2874;-72
2023/10/27 11:09:28;;;;;;;;;;;;;;;12.38;100.00;93808.31;10526888;28;1996;-71
2023/10/27 11:14:33;;;;;;;;;;;;;;;12.05;100.00;93808.31;10504225;28;1627;-71
2023/10/27 11:19:42;;;;;;;;;;;;;;;11.95;100.00;93812.16;10517755;28;1977;-70
2023/10/27 11:24:47;;;;;;;;;;;;;;;11.72;100.00;93819.00;10509114;28;2622;-71
2023/10/27 11:29:50;;;;;;;;;;;;;;;11.74;100.00;93816.75;10499594;28;2599;-71
2023/10/27 11:34:53;;;;;;;;;;;;;;;11.53;100.00;93811.38;10519076;28;1713;-73
2023/10/27 11:39:57;;;;;;;;;;;;;;;11.48;100.00;93815.03;10519446;28;1914;-71
2023/10/27 11:45:00;;;;;;;;;;;;;;;11.38;100.00;93812.72;10531044;27;1493;-69
2023/10/27 11:50:09;;;;;;;;;;;;;;;11.47;100.00;93797.31;10509199;28;5525;-71
2023/10/27 11:55:14;;;;;;;;;;;;;;;11.49;100.00;93810.44;10525282;28;1745;-71
2023/10/27 12:00:19;;;;;;;;;;;;;;;11.92;100.00;93801.28;10509912;28;1977;-73
2023/10/27 12:05:23;;;;;;;;;;;;;;;12.11;100.00;93815.06;10523716;28;1634;-72
2023/10/27 12:10:32;;;;;;;;;;;;;;;12.17;100.00;93824.50;10525932;28;3157;-72
2023/10/27 12:15:36;;;;;;;;;;;;;;;12.34;100.00;93813.59;10520409;28;1563;-71
2023/10/27 12:20:41;;;;;;;;;;;;;;;12.45;100.00;93830.09;10515739;28;1980;-70
2023/10/27 12:25:50;;;;;;;;;;;;;;;12.36;100.00;93822.13;10497720;28;1740;-76
2023/10/27 12:31:01;;;;;;;;;;;;;;;12.47;100.00;93844.06;10525882;28;1422;-72
2023/10/27 12:36:09;;;;;;;;;;;;;;;12.42;100.00;93804.63;10518845;28;4248;-72
2023/10/27 12:41:15;;;;;;;;;;;;;;;12.32;100.00;93842.75;10528088;28;1990;-72
2023/10/27 12:46:24;;;;;;;;;;;;;;;12.34;100.00;93856.69;10527276;28;1913;-71
2023/10/27 12:51:29;;;;;;;;;;;;;;;12.83;100.00;93878.41;10512746;28;5461;-72
2023/10/27 12:56:36;;;;;;;;;;;;;;;12.74;100.00;93883.09;10524918;28;2817;-71
2023/10/27 13:01:47;;;;;;;;;;;;;;;13.09;100.00;93893.50;10520176;28;2612;-73
2023/10/27 13:06:57;;;;;;;;;;;;;;;13.05;100.00;93893.41;10504742;28;2584;-72
2023/10/27 13:12:00;;;;;;;;;;;;;;;12.83;100.00;93916.16;10493564;28;2583;-75
2023/10/27 13:17:04;;;;;;;;;;;;;;;12.94;100.00;93911.91;10491301;28;2716;-73
2023/10/27 13:22:07;;;;;;;;;;;;;;;13.21;100.00;93917.84;10521831;28;2660;-72
2023/10/27 13:27:15;;;;;;;;;;;;;;;13.01;100.00;93915.97;10493853;28;1782;-76
2023/10/27 13:32:18;;;;;;;;;;;;;;;13.08;100.00;93921.59;10524974;28;2582;-73
2023/10/27 13:37:23;;;;;;;;;;;;;;;12.80;100.00;93932.22;10523621;28;1723;-73
2023/10/27 13:42:27;;;;;;;;;;;;;;;12.90;100.00;93921.00;10504927;28;2818;-72
2023/10/27 13:47:31;;;;;;;;;;;;;;;12.96;100.00;93925.06;10515501;28;2589;-71
2023/10/27 13:52:36;;;;;;;;;;;;;;;12.96;100.00;93919.66;10506444;28;5211;-72
2023/10/27 13:57:45;;;;;;;;;;;;;;;12.95;100.00;93942.38;10515373;28;2553;-73
2023/10/27 14:02:51;;;;;;;;;;;;;;;12.91;100.00;93919.88;10523597;28;2105;-72
2023/10/27 14:07:54;;;;;;;;;;;;;;;12.86;100.00;93928.97;10540498;28;1969;-71
2023/10/27 14:12:58;;;;;;;;;;;;;;;12.81;100.00;93937.28;10524142;28;1577;-71
2023/10/27 14:18:02;;;;;;;;;;;;;;;12.85;100.00;93950.84;10531105;28;2030;-71
2023/10/27 14:23:10;;;;;;;;;;;;;;;12.80;100.00;93943.00;10535626;28;2911;-74
2023/10/27 14:28:15;;;;;;;;;;;;;;;12.67;100.00;93961.81;10531289;28;1527;-71
2023/10/27 14:33:26;;;;;;;;;;;;;;;12.80;100.00;93957.25;10548448;28;1670;-71
2023/10/27 14:38:31;;;;;;;;;;;;;;;12.82;100.00;93968.50;10530134;28;1649;-71
2023/10/27 14:43:37;;;;;;;;;;;;;;;12.93;100.00;93969.66;10534144;28;1918;-71
2023/10/27 14:48:48;;;;;;;;;;;;;;;12.85;100.00;93957.06;10546089;28;5287;-75
2023/10/27 14:53:51;;;;;;;;;;;;;;;12.84;100.00;93960.84;10511172;28;2012;-74
2023/10/27 14:58:57;;;;;;;;;;;;;;;12.85;100.00;93970.56;10513724;28;1495;-73
2023/10/27 15:09:18;;;;;;;;;;;;;;;12.45;100.00;93962.94;10532099;28;1742;-72
2023/10/27 15:14:22;;;;;;;;;;;;;;;12.26;100.00;93964.50;10533771;28;1471;-73
2023/10/27 15:19:27;;;;;;;;;;;;;;;11.96;100.00;93974.50;10548092;28;1513;-75
2023/10/27 15:24:30;;;;;;;;;;;;;;;11.66;100.00;93974.50;10525116;28;1910;-73
2023/10/27 15:29:35;;;;;;;;;;;;;;;11.46;100.00;93976.00;10526293;28;1503;-75
2023/10/27 15:34:39;;;;;;;;;;;;;;;11.33;100.00;93991.25;10525202;28;1686;-78
2023/10/27 15:39:45;;;;;;;;;;;;;;;11.18;100.00;94004.41;10517488;28;1509;-73
2023/10/27 15:44:50;;;;;;;;;;;;;;;11.09;100.00;94007.13;10521255;28;1910;-72
2023/10/27 15:49:59;;;;;;;;;;;;;;;11.02;100.00;94018.34;10509138;28;5332;-69
2023/10/27 15:55:03;;;;;;;;;;;;;;;10.96;100.00;94027.69;10515860;28;1555;-71
2023/10/27 16:00:09;;;;;;;;;;;;;;;10.89;100.00;94023.91;10494042;28;1416;-70
2023/10/27 16:05:13;;;;;;;;;;;;;;;10.69;100.00;94036.88;10517808;28;1989;-73
2023/10/27 16:10:18;;;;;;;;;;;;;;;10.50;100.00;94033.72;10509287;28;1526;-72
2023/10/27 16:15:23;;;;;;;;;;;;;;;10.42;100.00;94050.59;10518582;28;1572;-73
2023/10/27 16:20:26;;;;;;;;;;;;;;;10.22;100.00;94052.75;10531962;28;1695;-71
2023/10/27 16:25:34;;;;;;;;;;;;;;;10.13;100.00;94065.38;10507208;28;1502;-72
2023/10/27 16:30:37;;;;;;;;;;;;;;;10.09;100.00;94064.41;10522817;28;1837;-70
2023/10/27 16:35:43;;;;;;;;;;;;;;;9.99;100.00;94068.19;10518432;28;2840;-71
2023/10/27 16:40:48;;;;;;;;;;;;;;;10.00;100.00;94060.91;10508003;28;1979;-71
2023/10/27 16:51:15;;;;;;;;;;;;;;;9.85;100.00;94082.78;10525668;28;5116;-71
2023/10/27 16:56:24;;;;;;;;;;;;;;;9.81;100.00;94092.56;10540857;28;1634;-72
2023/10/27 17:01:34;;;;;;;;;;;;;;;9.79;100.00;94100.13;10493804;28;1917;-72
2023/10/27 17:06:40;;;;;;;;;;;;;;;9.68;100.00;94104.97;10527374;28;1465;-72
2023/10/27 17:11:46;;;;;;;;;;;;;;;9.61;100.00;94107.31;10525338;28;1413;-73
2023/10/27 17:16:50;;;;;;;;;;;;;;;9.68;100.00;94111.13;10525123;28;1484;-71
2023/10/27 17:21:57;;;;;;;;;;;;;;;9.60;100.00;94111.88;10498521;28;2699;-73
2023/10/27 17:27:04;;;;;;;;;;;;;;;9.55;100.00;94125.44;10536391;28;1543;-72
2023/10/27 17:32:10;;;;;;;;;;;;;;;9.48;100.00;94117.03;10525897;28;1457;-74
2023/10/27 17:37:17;;;;;;;;;;;;;;;9.39;100.00;94116.97;10506307;28;1811;-73
2023/10/27 17:42:23;;;;;;;;;;;;;;;9.34;100.00;94132.38;10514977;28;2609;-76
2023/10/27 17:47:31;;;;;;;;;;;;;;;9.27;100.00;94132.81;10493357;28;2639;-73
2023/10/27 17:52:39;;;;;;;;;;;;;;;9.21;100.00;94124.09;10503777;28;5307;-73
2023/10/27 17:57:45;;;;;;;;;;;;;;;9.20;100.00;94132.44;10508351;28;2566;-73
2023/10/27 18:02:49;;;;;;;;;;;;;;;9.15;100.00;94133.34;10530483;28;2573;-74
2023/10/27 18:07:53;;;;;;;;;;;;;;;9.04;100.00;94126.66;10526671;28;2644;-73
2023/10/27 18:13:00;;;;;;;;;;;;;;;9.02;100.00;94134.19;10541778;27;2615;-74
2023/10/27 18:18:04;;;;;;;;;;;;;;;8.89;100.00;94135.03;10524798;28;2857;-73
2023/10/27 18:23:07;;;;;;;;;;;;;;;8.88;100.00;94144.16;10526318;28;2786;-73
2023/10/27 18:28:14;;;;;;;;;;;;;;;8.85;100.00;94150.16;10541294;27;2591;-74
2023/10/27 18:33:19;;;;;;;;;;;;;;;8.87;100.00;94161.34;10505776;28;2884;-73
2023/10/27 18:38:26;;;;;;;;;;;;;;;8.81;100.00;94157.19;10502526;28;2709;-75
2023/10/27 18:43:32;;;;;;;;;;;;;;;8.77;100.00;94158.88;10476938;28;2667;-73
2023/10/27 18:48:36;;;;;;;;;;;;;;;8.75;100.00;94159.19;10533004;27;5144;-73
2023/10/27 18:53:42;;;;;;;;;;;;;;;8.76;100.00;94160.75;10533453;27;2657;-72
2023/10/27 18:58:47;;;;;;;;;;;;;;;8.75;100.00;94166.44;10486065;28;2743;-73
2023/10/27 19:03:50;;;;;;;;;;;;;;;8.68;100.00;94169.53;10500980;28;2643;-74
2023/10/27 19:08:54;;;;;;;;;;;;;;;8.69;100.00;94178.34;10527713;27;2568;-75
2023/10/27 19:13:58;;;;;;;;;;;;;;;8.66;100.00;94169.81;10505290;28;2655;-74
2023/10/27 19:19:03;;;;;;;;;;;;;;;8.66;100.00;94175.19;10509979;28;2848;-73
2023/10/27 19:24:07;;;;;;;;;;;;;;;8.70;100.00;94166.53;10515289;28;2659;-74
2023/10/27 19:29:14;;;;;;;;;;;;;;;8.59;100.00;94182.03;10527338;28;2931;-73
2023/10/27 19:34:30;;;;;;;;;;;;;;;8.58;100.00;94178.53;10488690;28;2682;-73
2023/10/27 19:39:37;;;;;;;;;;;;;;;8.57;100.00;94195.72;10477566;28;2580;-73
2023/10/27 19:44:42;;;;;;;;;;;;;;;8.50;100.00;94197.22;10516628;28;2602;-75
2023/10/27 19:49:46;;;;;;;;;;;;;;;8.42;100.00;94204.06;10503855;28;5343;-73
2023/10/27 19:54:52;;;;;;;;;;;;;;;8.43;100.00;94205.66;10519200;28;2692;-72
2023/10/27 19:59:57;;;;;;;;;;;;;;;8.52;100.00;94211.88;10514513;28;2681;-71
2023/10/27 20:05:02;;;;;;;;;;;;;;;8.48;100.00;94208.22;10518749;28;2644;-71
2023/10/27 20:10:13;;;;;;;;;;;;;;;8.48;100.00;94199.41;10524884;28;2621;-72
2023/10/27 20:15:18;;;;;;;;;;;;;;;8.42;100.00;94193.34;10499286;28;2730;-74
2023/10/27 20:20:24;;;;;;;;;;;;;;;8.37;100.00;94201.47;10527438;28;3143;-73
2023/10/27 20:25:29;;;;;;;;;;;;;;;8.31;100.00;94206.09;10501058;28;2782;-74
2023/10/27 20:30:40;;;;;;;;;;;;;;;8.31;100.00;94191.94;10493357;28;2530;-72
2023/10/27 20:35:43;;;;;;;;;;;;;;;8.25;100.00;94198.47;10520405;27;2681;-75
2023/10/27 20:40:50;;;;;;;;;;;;;;;8.13;100.00;94197.06;10516817;28;2649;-77
2023/10/27 20:45:57;;;;;;;;;;;;;;;8.03;100.00;94186.56;10517566;28;2514;-74
2023/10/27 20:51:05;;;;;;;;;;;;;;;7.98;100.00;94183.97;10530888;28;5127;-75
2023/10/27 20:56:10;;;;;;;;;;;;;;;7.87;100.00;94193.28;10495274;28;2733;-73
2023/10/27 21:01:13;;;;;;;;;;;;;;;7.88;100.00;94200.19;10499416;28;2600;-74
2023/10/27 21:06:17;;;;;;;;;;;;;;;7.82;100.00;94201.38;10486045;28;2824;-72
2023/10/27 21:11:21;;;;;;;;;;;;;;;7.74;100.00;94199.38;10478063;28;2679;-74
2023/10/27 21:16:25;;;;;;;;;;;;;;;7.74;100.00;94194.03;10489620;28;3103;-76
2023/10/27 21:21:30;;;;;;;;;;;;;;;7.71;100.00;94210.69;10526890;28;2665;-71
2023/10/27 21:26:33;;;;;;;;;;;;;;;7.73;100.00;94216.53;10509023;28;2672;-73
2023/10/27 21:31:41;;;;;;;;;;;;;;;7.68;100.00;94206.69;10510463;28;2771;-73
2023/10/27 21:36:44;;;;;;;;;;;;;;;7.64;100.00;94203.03;10510739;28;2605;-73
2023/10/27 21:41:49;;;;;;;;;;;;;;;7.57;100.00;94200.75;10510943;28;2605;-73
2023/10/27 21:46:52;;;;;;;;;;;;;;;7.45;100.00;94196.94;10491884;28;2665;-74
2023/10/27 21:51:56;;;;;;;;;;;;;;;7.35;100.00;94195.22;10510192;28;5342;-74
2023/10/27 21:57:06;;;;;;;;;;;;;;;7.32;100.00;94198.47;10500246;28;2589;-73
2023/10/27 22:02:10;;;;;;;;;;;;;;;7.29;100.00;94204.38;10512923;28;2628;-74
2023/10/27 22:07:21;;;;;;;;;;;;;;;7.26;100.00;94205.00;10514081;28;2688;-77
2023/10/27 22:12:25;;;;;;;;;;;;;;;7.23;100.00;94202.88;10494345;28;2859;-74
2023/10/27 22:17:28;;;;;;;;;;;;;;;7.17;100.00;94207.50;10504619;28;2616;-74
2023/10/27 22:22:33;;;;;;;;;;;;;;;7.12;100.00;94212.91;10519752;28;2758;-74
2023/10/27 22:27:40;;;;;;;;;;;;;;;7.03;100.00;94217.34;10491815;28;2789;-74
2023/10/27 22:32:45;;;;;;;;;;;;;;;7.07;100.00;94214.91;10507892;28;2925;-72
2023/10/27 22:37:49;;;;;;;;;;;;;;;7.11;100.00;94218.56;10507135;28;2592;-73
2023/10/27 22:42:52;;;;;;;;;;;;;;;7.13;100.00;94216.41;10514723;28;2581;-72
2023/10/27 22:47:56;;;;;;;;;;;;;;;7.00;100.00;94208.03;10533310;28;5322;-72
2023/10/27 22:52:59;;;;;;;;;;;;;;;7.09;100.00;94218.84;10516187;28;2715;-73
2023/10/27 22:58:04;;;;;;;;;;;;;;;7.09;100.00;94226.06;10518667;28;2613;-74
2023/10/27 23:03:10;;;;;;;;;;;;;;;7.19;100.00;94234.75;10516594;28;2561;-73
2023/10/27 23:08:13;;;;;;;;;;;;;;;7.23;100.00;94241.09;10514955;28;2529;-73
2023/10/27 23:13:18;;;;;;;;;;;;;;;7.41;100.00;94254.75;10521827;28;2613;-75
2023/10/27 23:18:23;;;;;;;;;;;;;;;7.61;100.00;94261.66;10519770;28;2633;-73
2023/10/27 23:23:32;;;;;;;;;;;;;;;7.68;100.00;94260.19;10497120;28;2614;-71
2023/10/27 23:28:37;;;;;;;;;;;;;;;7.91;100.00;94271.88;10488621;28;2888;-71
2023/10/27 23:33:41;;;;;;;;;;;;;;;8.11;100.00;94282.22;10509266;28;2821;-73
2023/10/27 23:38:46;;;;;;;;;;;;;;;8.35;100.00;94297.34;10529727;28;2554;-73
2023/10/27 23:43:54;;;;;;;;;;;;;;;8.51;100.00;94297.88;10497626;28;2602;-73
2023/10/27 23:48:57;;;;;;;;;;;;;;;8.72;100.00;94304.47;10527921;28;2702;-73
2023/10/27 23:54:02;;;;;;;;;;;;;;;8.84;100.00;94307.44;10512062;28;2806;-74
2023/10/27 23:59:08;;;;;;;;;;;;;;;9.08;100.00;94317.94;10535535;27;2878;-72
